Latest Coastal Weather Observations for Coolangatta (QLD)

IDN60701

Issued at 4:22 pm EST Wednesday 24 August 2016 (issued every 10 minutes, with the page automatically refreshed every 10 minutes)

About coastal observations | Map of coastal stations | Coastal observations for NSW | Marine services | Other Formats
Station Details ID: 040717 Name: COOLANGATTA Lat: -28.17 Lon: 153.51 Height: 4.0 m
Data from the previous 72 hours. | See also: Recent months at Coolangatta (QLD)
Date/Time
EST
Temp
°C
Wind Pressure Rain since
9am
mm
Weather Cloud Vis
km
Sea
Height
m
Swell
Dir  Spd
kts
Gust
kts
hPa Trend Height
m
Period
s
Dir
24/04:00pm 16.4 SSW 9 14 1007.0 - 29.2 - Partly cloudy 10 - - - -
24/03:30pm 16.5 SSW 9 12 1006.9 - 29.0 - Partly cloudy 10 - - - -
24/03:00pm 16.4 SSW 7 9 1006.3 - 29.0 Showers Cloudy 10 - - - -
24/02:30pm 16.1 SSW 7 9 1006.2 - 29.0 - Cloudy 10 - - - -
24/02:12pm 15.7 SSW 9 12 1006.5 - 28.4 - Cloudy 9 - - - -
24/02:00pm 15.6 SW 8 12 1006.6 - 27.8 - Partly cloudy 5 - - - -
24/01:36pm 15.6 SW 11 16 1006.3 - 24.8 - Partly cloudy 6 - - - -
24/01:30pm 15.8 SW 11 19 1006.3 - 24.2 - Partly cloudy 10 - - - -
24/01:04pm 15.6 SSW 9 14 1006.5 - 22.0 - Cloudy 6 - - - -
24/01:00pm 15.6 SSW 9 14 1006.5 - 21.6 - Cloudy 7 - - - -
24/12:49pm 15.6 SSW 10 14 1006.4 - 20.8 - Cloudy 7 - - - -
24/12:30pm 15.6 SSW 9 17 1006.7 - 19.8 - Cloudy 5 - - - -
24/12:00pm 15.7 SSW 9 14 1007.1 - 17.2 Rain Cloudy 4 - - - -
24/11:30am 15.7 SSW 16 24 1006.8 - 14.4 - Partly cloudy 4 - - - -
24/11:00am 15.8 SW 11 17 1007.5 - 11.8 - Partly cloudy 7 - - - -
24/10:49am 15.9 SW 12 18 1007.6 - 11.4 - Partly cloudy 6 - - - -
24/10:44am 15.9 SW 11 15 1008.1 - 10.8 - Partly cloudy 9 - - - -
24/10:30am 15.9 SW 9 15 1008.2 - 10.4 - Partly cloudy 6 - - - -
24/10:00am 15.9 SSW 10 14 1008.8 - 5.8 - Partly cloudy 5 - - - -
24/09:43am 16.2 SSW 12 19 1009.1 - 3.2 - Partly cloudy 6 - - - -
24/09:30am 16.3 SW 7 13 1009.0 - 2.2 - Partly cloudy 7 - - - -
24/09:10am 16.6 SSW 7 13 1009.1 - 0.8 - Cloudy 6 - - - -
24/09:00am 16.7 SSW 9 13 1009.0 - 26.4 Rain Cloudy 10 - - - -
24/08:30am 16.9 SW 10 16 1009.3 - 24.8 - Cloudy 10 - - - -
24/08:00am 16.8 WSW 8 12 1009.2 - 24.0 - Cloudy 10 - - - -
24/07:31am 16.5 SSW 10 14 1009.2 - 23.2 - Cloudy 8 - - - -
24/07:30am 16.5 SSW 10 14 1009.2 - 23.2 - Cloudy 8 - - - -
24/07:00am 16.6 SSW 8 10 1009.0 - 21.6 - Cloudy 5 - - - -
24/06:55am 16.7 SSW 8 11 1008.9 - 21.2 - Cloudy 6 - - - -
24/06:37am 16.9 S 7 10 1008.8 - 20.2 - Cloudy 10 - - - -
24/06:30am 16.9 SSW 6 10 1008.9 - 20.2 - Cloudy 10 - - - -
24/06:17am 16.9 SW 7 9 1009.0 - 20.0 - Cloudy 6 - - - -
24/06:10am 16.9 SW 7 11 1009.0 - 19.8 - Cloudy 10 - - - -
24/06:00am 17.0 SW 7 11 1008.9 - 19.2 Rain Cloudy 10 - - - -
24/05:30am 17.4 SSW 8 13 1008.7 - 18.2 - Partly cloudy 10 - - - -
24/05:29am 17.4 SSW 8 13 1008.7 - 18.2 - Partly cloudy 10 - - - -
24/05:00am 18.8 WSW 4 5 1008.6 - 17.6 - Partly cloudy 10 - - - -
24/04:45am 18.8 W 5 6 1008.6 - 17.2 - Partly cloudy 10 - - - -
24/04:39am 18.9 WNW 5 9 1008.5 - 17.2 - Partly cloudy 8 - - - -
24/04:30am 18.9 NW 6 9 1008.6 - 17.0 - Partly cloudy 7 - - - -
24/04:26am 19.0 NW 6 9 1008.6 - 17.0 - Partly cloudy 6 - - - -
24/04:00am 19.2 NNW 9 14 1008.3 - 16.6 - Partly cloudy 8 - - - -
24/03:45am 19.1 NNW 10 13 1008.4 - 16.6 - Partly cloudy 10 - - - -
24/03:30am 18.9 NNW 10 15 1008.6 - 16.6 - Partly cloudy 4 - - - -
24/03:25am 19.0 NNW 10 14 1008.7 - 16.2 - Partly cloudy 5 - - - -
24/03:11am 19.1 NNW 15 22 1008.7 - 16.0 - Partly cloudy 5 - - - -
24/03:00am 19.0 N 18 23 1008.9 - 15.8 Rain Cloudy 2 - - - -
24/02:37am 19.4 N 15 25 1009.0 - 8.6 - Partly cloudy 2 - - - -
24/02:30am 19.6 NNW 10 14 1008.9 - 5.4 - Cloudy 3 - - - -
24/02:17am 19.6 NNW 9 14 1009.2 - 3.6 - Partly cloudy 6 - - - -
24/02:00am 19.8 NNW 9 12 1009.7 - 3.4 - Cloudy 9 - - - -
24/01:30am 20.0 NNW 11 17 1009.8 - 3.2 - Partly cloudy 8 - - - -
24/01:17am 20.0 NNW 11 16 1010.0 - 3.2 - Partly cloudy 8 - - - -
24/01:00am 20.4 N 12 17 1010.2 - 3.2 - Partly cloudy 5 - - - -
24/12:52am 20.4 NNW 8 12 1010.2 - 3.0 - Partly cloudy 5 - - - -
24/12:34am 20.3 N 11 13 1010.6 - 2.8 - Partly cloudy 6 - - - -
24/12:30am 20.3 N 11 15 1010.6 - 2.8 - Partly cloudy 7 - - - -
24/12:27am 20.4 N 12 15 1010.6 - 2.8 - Partly cloudy 7 - - - -
24/12:16am 20.5 N 15 18 1010.6 - 2.8 - Partly cloudy 7 - - - -
24/12:00am 19.0 NW 2 6 1011.0 - 2.4 Rain Mostly cloudy 8 - - - -
 
Date/Time
EST
Temp
°C
Wind Pressure Rain since
9am
mm
Weather Cloud Vis
km
Sea
Height
m
Swell
Dir  Spd
kts
Gust
kts
hPa Trend Height
m
Period
s
Dir
23/11:30pm 18.5 W 1 4 1011.5 - 2.0 - Cloudy 10 - - - -
23/11:29pm 18.5 W 2 4 1011.5 - 2.0 - Cloudy 10 - - - -
23/11:13pm 18.5 S 1 5 1011.5 - 1.8 - Partly cloudy 5 - - - -
23/11:00pm 18.5 CALM 0 0 1011.5 - 1.2 - Partly cloudy 4 - - - -
23/10:56pm 18.5 CALM 0 0 1011.7 - 0.8 - Partly cloudy 6 - - - -
23/10:30pm 18.3 SW 6 7 1012.2 - 0.6 - Partly cloudy 10 - - - -
23/10:00pm 18.4 WSW 2 5 1012.7 - 0.6 - Partly cloudy 10 - - - -
23/09:30pm 18.5 CALM 0 0 1013.0 - 0.6 - Cloudy 10 - - - -
23/09:00pm 18.6 WSW 1 4 1013.3 - 0.4 Rain Cloudy 10 - - - -
23/08:30pm 18.8 W 4 5 1013.6 - 0.4 - Cloudy 9 - - - -
23/08:00pm 19.1 WNW 4 5 1013.4 - 0.0 - Cloudy 10 - - - -
23/07:30pm 19.5 WNW 4 5 1013.3 - 0.0 - Cloudy 10 - - - -
23/07:00pm 20.2 NNW 4 6 1013.3 - 0.0 - Partly cloudy 10 - - - -
23/06:30pm 20.4 NW 2 4 1013.1 - 0.0 - Partly cloudy 10 - - - -
23/06:00pm 20.5 NNW 4 5 1012.7 - 0.0 - Cloudy 10 - - - -
23/05:30pm 20.8 NNW 5 6 1012.8 - 0.0 - Cloudy 10 - - - -
23/05:25pm 20.8 NNW 5 7 1012.7 - 0.0 - Cloudy 10 - - - -
23/05:06pm 20.9 N 7 8 1012.3 - 0.0 - Cloudy 4 - - - -
23/05:00pm 21.0 N 7 8 1012.2 - 0.0 - Cloudy 10 - - - -
23/04:30pm 21.3 N 5 7 1012.1 - 0.0 - Cloudy 10 - - - -
23/04:00pm 21.5 NNE 5 7 1012.0 - 0.0 - Partly cloudy 10 - - - -
23/03:30pm 22.0 NE 6 8 1011.6 - 0.0 - Partly cloudy 10 - - - -
23/03:00pm 22.1 NNE 8 10 1011.6 - 0.0 - Cloudy 10 - - - -
23/02:30pm 23.2 N 9 11 1011.5 - 0.0 - - 10 - - - -
23/02:00pm 23.6 NNE 7 9 1011.4 - 0.0 - Partly cloudy 10 - - - -
23/01:30pm 23.4 NNE 8 9 1011.8 - 0.0 - Partly cloudy 10 - - - -
23/01:00pm 22.4 NNE 7 9 1012.5 - 0.0 - Partly cloudy 10 - - - -
23/12:30pm 21.9 N 5 7 1012.9 - 0.0 - Partly cloudy 10 - - - -
23/12:00pm 21.0 NW 5 7 1013.5 - 0.0 - Cloudy 10 - - - -
23/11:30am 21.2 N 10 12 1013.9 - 0.0 - Partly cloudy 10 - - - -
23/11:00am 21.7 N 9 10 1014.2 - 0.0 - Cloudy 10 - - - -
23/10:30am 21.2 N 9 11 1014.3 - 0.0 - Partly cloudy 10 - - - -
23/10:00am 20.3 N 9 12 1014.6 - 0.0 - Cloudy 10 - - - -
23/09:30am 21.5 NNW 11 13 1014.5 - 0.0 - Partly cloudy 10 - - - -
23/09:00am 22.2 NNW 11 15 1014.0 - 0.0 - Partly cloudy 10 - - - -
23/08:30am 21.2 N 12 16 1013.5 - 0.0 - - 10 - - - -
23/08:00am 20.5 NNW 7 10 1013.9 - 0.0 - - 10 - - - -
23/07:30am 19.7 NW 5 7 1013.9 - 0.0 - - 10 - - - -
23/07:00am 17.9 SSE 1 4 1013.9 - 0.0 - - 10 - - - -
23/06:30am 16.6 CALM 0 2 1013.8 - 0.0 - - 10 - - - -
23/06:00am 17.5 NW 5 7 1013.6 - 0.0 - Mostly clear 10 - - - -
23/05:30am 17.7 NW 7 9 1013.6 - 0.0 - Partly cloudy 10 - - - -
23/05:00am 18.1 WNW 8 10 1013.4 - 0.0 - Partly cloudy 10 - - - -
23/04:30am 18.3 NW 8 9 1013.3 - 0.0 - Partly cloudy 10 - - - -
23/04:00am 18.9 NNW 8 11 1013.4 - 0.0 - Partly cloudy 10 - - - -
23/03:30am 18.4 NW 6 9 1013.6 - 0.0 - Partly cloudy 10 - - - -
23/03:00am 18.7 NW 7 11 1013.8 - 0.0 Showers Cloudy 10 - - - -
23/02:30am 18.9 NW 8 12 1014.0 - 0.0 - Partly cloudy 10 - - - -
23/02:00am 18.6 NW 7 10 1014.0 - 0.0 - Partly cloudy 10 - - - -
23/01:30am 18.5 WNW 7 9 1014.1 - 0.0 - Partly cloudy 10 - - - -
23/01:00am 18.6 NW 5 8 1014.5 - 0.0 - Partly cloudy 10 - - - -
23/12:30am 18.5 NW 7 9 1014.7 - 0.0 - Partly cloudy 10 - - - -
23/12:00am 18.9 NNW 9 11 1014.8 - 0.0 - Cloudy 10 - - - -
 
Date/Time
EST
Temp
°C
Wind Pressure Rain since
9am
mm
Weather Cloud Vis
km
Sea
Height
m
Swell
Dir  Spd
kts
Gust
kts
hPa Trend Height
m
Period
s
Dir
22/11:30pm 19.0 NNW 9 12 1014.9 - 0.0 - Partly cloudy 10 - - - -
22/11:00pm 18.4 NW 9 12 1015.1 - 0.0 - - 10 - - - -
22/10:30pm 18.6 NW 8 12 1015.2 - 0.0 - Partly cloudy 10 - - - -
22/10:00pm 18.1 WNW 5 6 1015.3 - 0.0 - Cloudy 10 - - - -
22/09:30pm 18.3 W 4 6 1015.1 - 0.0 - Cloudy 10 - - - -
22/09:00pm 19.2 WNW 6 8 1015.0 - 0.0 - Mostly cloudy 10 - - - -
22/08:30pm 20.3 N 14 19 1014.7 - 0.0 - Partly cloudy 10 - - - -
22/08:00pm 20.1 N 15 20 1015.0 - 0.0 - Partly cloudy 10 - - - -
22/07:30pm 20.2 N 15 19 1014.7 - 0.0 - - 10 - - - -
22/07:00pm 20.0 N 13 17 1014.3 - 0.0 - - 10 - - - -
22/06:30pm 20.1 N 14 18 1014.1 - 0.0 - - 10 - - - -
22/06:00pm 20.1 N 16 19 1014.2 - 0.0 - - 10 - - - -
22/05:30pm 20.2 N 15 19 1014.3 - 0.0 - - 10 - - - -
22/05:00pm 20.7 N 14 19 1014.1 - 0.0 - - 10 - - - -
22/04:30pm 21.1 N 15 18 1014.1 - 0.0 - - 10 - - - -
22/04:00pm 22.0 N 13 16 1014.2 - 0.0 - Partly cloudy 10 - - - -
22/03:30pm 21.4 N 14 17 1014.2 - 0.0 - Partly cloudy 10 - - - -
22/03:00pm 21.9 N 13 17 1014.2 - 0.0 - Cloudy 10 - - - -
22/02:30pm 21.8 N 13 16 1014.7 - 0.0 - Partly cloudy 10 - - - -
22/02:00pm 22.8 N 12 15 1015.0 - 0.0 - Partly cloudy 10 - - - -
22/01:30pm 21.8 N 10 13 1015.5 - 0.0 - Partly cloudy 10 - - - -
22/01:00pm 21.7 NNE 12 15 1015.9 - 0.0 - Partly cloudy 10 - - - -
22/12:30pm 22.5 NNE 10 13 1016.1 - 0.0 - - 10 - - - -
22/12:00pm 22.3 NNE 10 13 1016.7 - 0.0 - Cloudy 10 - - - -
22/11:30am 21.6 NNE 8 11 1017.2 - 0.0 - Partly cloudy 10 - - - -
22/11:00am 21.6 NNE 6 9 1017.6 - 0.0 - Partly cloudy 10 - - - -
22/10:30am 21.2 NNE 6 8 1017.7 - 0.0 - - 10 - - - -
22/10:00am 21.0 NNE 6 8 1018.0 - 0.0 - - 10 - - - -
22/09:30am 21.0 NE 5 6 1018.1 - 0.0 - - 10 - - - -
22/09:00am 20.6 E 3 7 1018.1 - 0.0 - - 10 - - - -
22/08:30am 18.2 SW 1 3 1018.5 - 0.0 - - 10 - - - -
22/08:00am 16.5 S 3 5 1018.4 - 0.0 - - 10 - - - -
22/07:30am 14.2 SW 3 4 1018.5 - 0.0 - Partly cloudy 10 - - - -
22/07:00am 12.5 SSW 2 3 1018.2 - 0.0 - Partly cloudy 10 - - - -
22/06:30am 11.4 SW 1 3 1018.2 - 0.0 - Partly cloudy 10 - - - -
22/06:00am 11.4 SW 3 4 1017.8 - 0.0 - Cloudy 10 - - - -
22/05:30am 10.4 SW 3 4 1017.8 - 0.0 - Partly cloudy 7 - - - -
22/05:00am 10.4 CALM 0 0 1017.5 - 0.0 - - 10 - - - -
22/04:30am 10.6 SW 3 4 1017.5 - 0.0 - - 10 - - - -
22/04:19am 10.8 SW 4 5 1017.3 - 0.0 - - 10 - - - -
22/04:00am 10.3 SSW 3 4 1017.3 - 0.0 - - 0.8 - - - -
22/03:37am 10.6 SW 3 4 1017.2 - 0.0 - - 5 - - - -
22/03:30am 10.9 SW 3 4 1017.3 - 0.0 - - 10 - - - -
22/03:00am 11.2 SSW 3 4 1017.3 - 0.0 - - 10 - - - -
22/02:30am 11.4 SW 3 5 1017.6 - 0.0 - Partly cloudy 10 - - - -
22/02:00am 11.4 CALM 0 0 1017.7 - 0.0 - - 10 - - - -
22/01:30am 11.4 SW 3 5 1017.9 - 0.0 - - 10 - - - -
22/01:00am 11.5 CALM 0 0 1018.0 - 0.0 - - 10 - - - -
22/12:30am 11.6 S 3 5 1018.3 - 0.0 - - 10 - - - -
22/12:00am 11.6 SW 3 5 1018.4 - 0.0 - - 10 - - - -
 
Date/Time
EST
Temp
°C
Wind Pressure Rain since
9am
mm
Weather Cloud Vis
km
Sea
Height
m
Swell
Dir  Spd
kts
Gust
kts
hPa Trend Height
m
Period
s
Dir
21/11:30pm 12.0 SSW 2 3 1018.6 - 0.0 - - 10 - - - -
21/11:00pm 12.3 S 3 5 1018.9 - 0.0 - Partly cloudy 10 - - - -
21/10:30pm 12.5 SSW 3 4 1019.0 - 0.0 - - 10 - - - -
21/10:00pm 12.8 SW 3 5 1018.9 - 0.0 - - 10 - - - -
21/09:30pm 12.7 S 3 4 1018.9 - 0.0 - - 10 - - - -
21/09:00pm 13.1 SW 3 5 1018.9 - 0.0 - Mostly cloudy 10 - - - -
21/08:30pm 13.2 CALM 0 3 1018.8 - 0.0 - Partly cloudy 10 - - - -
21/08:00pm 13.8 SW 4 6 1018.7 - 0.0 - Partly cloudy 10 - - - -
21/07:30pm 13.8 SW 4 6 1018.4 - 0.0 - - 10 - - - -
21/07:00pm 14.2 SW 7 8 1018.6 - 0.0 - - 10 - - - -
21/06:30pm 14.5 SW 5 6 1018.4 - 0.0 - - 10 - - - -
21/06:00pm 15.1 SSW 4 5 1018.1 - 0.0 - - 10 - - - -
21/05:30pm 16.5 S 4 6 1018.1 - 0.0 - - 10 - - - -
21/05:00pm 17.6 SE 8 10 1017.8 - 0.0 - - 10 - - - -
21/04:30pm 18.3 SE 9 12 1017.5 - 0.0 - - 10 - - - -

Other Formats:

Comma delimited format used in spreadsheet applications
http://www.bom.gov.au/fwo/IDN60701/IDN60701.94592.axf

JavaScript Object Notation format (JSON) in row-major order
http://www.bom.gov.au/fwo/IDN60701/IDN60701.94592.json